Time;durP1;ratioP1;P1;durP2;ratioP2;P2;SDS_P1;SDS_P2;PMS_P1;PMS_P2;Temp;Humidity;BMP_temperature;BMP_pressure;BME280_temperature;BME280_humidity;BME280_pressure;Samples;Min_cycle;Max_cycle;Signal;HPM_P1;HPM_P2
2021/01/30 00:01:53;;;;;;;1999.90;999.90;;;2.70;99.90;;;;;;6221791;23;20050;-95
2021/01/30 00:04:30;;;;;;;1999.90;999.90;;;2.60;99.90;;;;;;6273997;22;20043;-95
2021/01/30 00:07:01;;;;;;;1999.90;999.90;;;2.50;99.90;;;;;;6278662;22;20016;-94
2021/01/30 00:09:29;;;;;;;1999.90;999.90;;;2.60;99.90;;;;;;6278059;22;20099;-94
2021/01/30 00:11:59;;;;;;;1999.90;999.90;;;2.60;99.90;;;;;;6278374;22;20020;-95
2021/01/30 00:14:29;;;;;;;1999.90;999.90;;;2.50;99.90;;;;;;6278856;22;20389;-95
2021/01/30 00:16:56;;;;;;;1999.90;999.90;;;2.50;99.90;;;;;;6279767;22;20360;-95
2021/01/30 00:19:24;;;;;;;1999.90;999.90;;;2.50;99.90;;;;;;6280988;22;20098;-95
2021/01/30 00:21:53;;;;;;;1999.90;999.90;;;2.60;99.90;;;;;;6283932;22;20023;-95
2021/01/30 00:24:23;;;;;;;1999.90;999.90;;;2.60;99.90;;;;;;6280716;22;20038;-95
2021/01/30 00:26:55;;;;;;;1999.90;999.90;;;2.60;99.90;;;;;;6279659;22;20019;-95
2021/01/30 00:29:30;;;;;;;1999.90;999.90;;;2.60;99.90;;;;;;6280391;22;20015;-96
2021/01/30 00:32:00;;;;;;;1999.90;999.90;;;2.50;99.90;;;;;;6281381;22;20019;-95
2021/01/30 00:34:30;;;;;;;1999.90;999.90;;;2.40;99.90;;;;;;6280483;22;20053;-95
2021/01/30 00:37:01;;;;;;;1999.90;999.90;;;2.30;99.90;;;;;;6280825;22;20016;-95
2021/01/30 00:39:40;;;;;;;1999.90;999.90;;;2.30;99.90;;;;;;6279820;22;20019;-95
2021/01/30 00:42:13;;;;;;;1999.90;999.90;;;2.40;99.90;;;;;;6281044;22;20025;-94
2021/01/30 00:44:47;;;;;;;1999.90;999.90;;;2.40;99.90;;;;;;6280306;22;20073;-95
2021/01/30 00:47:14;;;;;;;1999.90;999.90;;;2.30;99.90;;;;;;6280687;22;20098;-94
2021/01/30 00:49:43;;;;;;;1999.90;999.90;;;2.40;99.90;;;;;;6281204;22;20016;-96
2021/01/30 00:52:13;;;;;;;1999.90;999.90;;;2.40;99.90;;;;;;6280397;22;20443;-94
2021/01/30 00:54:45;;;;;;;1999.90;999.90;;;2.50;99.90;;;;;;6279427;22;20023;-94
2021/01/30 00:57:13;;;;;;;1999.90;999.90;;;2.50;99.90;;;;;;6280107;22;20444;-94
2021/01/30 00:59:45;;;;;;;1999.90;999.90;;;2.40;99.90;;;;;;6279271;22;20362;-95
2021/01/30 01:02:13;;;;;;;1999.90;999.90;;;2.50;99.90;;;;;;6279430;22;20024;-94
2021/01/30 01:04:43;;;;;;;1999.90;999.90;;;2.50;99.90;;;;;;6279982;22;20026;-94
2021/01/30 01:07:10;;;;;;;1999.90;999.90;;;2.60;99.90;;;;;;6279306;22;20069;-94
2021/01/30 01:09:37;;;;;;;1999.90;999.90;;;2.60;99.90;;;;;;6280085;22;20094;-94
2021/01/30 01:12:05;;;;;;;1999.90;999.90;;;2.50;99.90;;;;;;6281401;22;20019;-94
2021/01/30 01:14:35;;;;;;;1999.90;999.90;;;2.50;99.90;;;;;;6279437;22;20045;-94
2021/01/30 01:17:03;;;;;;;1999.90;999.90;;;2.50;99.90;;;;;;6279391;22;20039;-95
2021/01/30 01:19:38;;;;;;;1999.90;999.90;;;2.50;99.90;;;;;;6280449;22;20027;-94
2021/01/30 01:22:05;;;;;;;;;;;2.40;99.90;;;;;;6280483;22;20042;-94
2021/01/30 01:24:32;;;;;;;1999.90;999.90;;;2.40;99.90;;;;;;6279623;22;20285;-95
2021/01/30 01:26:59;;;;;;;1999.90;999.90;;;2.40;99.90;;;;;;6279121;22;20016;-94
2021/01/30 01:29:27;;;;;;;1999.90;999.90;;;2.30;99.90;;;;;;6279051;22;20435;-95
2021/01/30 01:32:06;;;;;;;1999.90;999.90;;;2.30;99.90;;;;;;6279782;22;20016;-94
2021/01/30 01:34:36;;;;;;;1999.90;999.90;;;2.30;99.90;;;;;;6279625;22;20026;-94
2021/01/30 01:37:06;;;;;;;1999.90;999.90;;;2.30;99.90;;;;;;6279418;22;20025;-95
2021/01/30 01:39:34;;;;;;;1999.90;999.90;;;2.30;99.90;;;;;;6280160;22;20378;-94
2021/01/30 01:42:09;;;;;;;1999.90;999.90;;;2.30;99.90;;;;;;6279927;22;20016;-94
2021/01/30 01:44:37;;;;;;;1999.90;999.90;;;2.20;99.90;;;;;;6280088;22;20335;-95
2021/01/30 01:47:10;;;;;;;1999.90;999.90;;;2.20;99.90;;;;;;6280566;22;20023;-94
2021/01/30 01:49:41;;;;;;;1999.90;999.90;;;2.20;99.90;;;;;;6279839;22;20025;-94
2021/01/30 01:52:22;;;;;;;1999.90;999.90;;;2.10;99.90;;;;;;6279497;22;20023;-94
2021/01/30 01:54:54;;;;;;;1999.90;999.90;;;2.10;99.90;;;;;;6280156;22;20373;-95
2021/01/30 01:57:22;;;;;;;1999.90;999.90;;;2.10;99.90;;;;;;6279147;22;20054;-95
2021/01/30 01:59:52;;;;;;;1999.90;999.90;;;2.10;99.90;;;;;;6279165;22;20020;-94
2021/01/30 02:02:20;;;;;;;1999.90;999.90;;;2.10;99.90;;;;;;6279210;22;20042;-94
2021/01/30 02:05:03;;;;;;;1999.90;999.90;;;2.00;99.90;;;;;;6279627;22;20020;-94
2021/01/30 02:07:33;;;;;;;1999.90;999.90;;;2.00;99.90;;;;;;6280813;22;20024;-94
2021/01/30 02:10:01;;;;;;;1999.90;999.90;;;2.00;99.90;;;;;;6280374;22;20427;-95
2021/01/30 02:12:28;;;;;;;1999.90;999.90;;;2.10;99.90;;;;;;6279728;22;20020;-94
2021/01/30 02:14:56;;;;;;;1999.90;999.90;;;2.00;99.90;;;;;;6280123;22;20028;-94
2021/01/30 02:17:43;;;;;;;1999.90;999.90;;;2.00;99.90;;;;;;6280586;22;20077;-94
2021/01/30 02:20:51;;;;;;;1999.90;999.90;;;2.00;99.90;;;;;;6279986;22;20047;-94
2021/01/30 02:23:44;;;;;;;1999.90;999.90;;;2.00;99.90;;;;;;6279588;22;20019;-95
2021/01/30 02:26:38;;;;;;;1999.90;999.90;;;2.00;99.90;;;;;;6157394;23;20025;-95
2021/01/30 02:29:32;;;;;;;1999.90;999.90;;;1.90;99.90;;;;;;6280300;22;20073;-96
2021/01/30 02:32:22;;;;;;;1999.90;999.90;;;2.00;99.90;;;;;;6281188;22;20520;-95
2021/01/30 02:35:05;;;;;;;1999.90;999.90;;;1.90;99.90;;;;;;6280384;22;20015;-95
2021/01/30 02:37:39;;;;;;;1999.90;999.90;;;2.00;99.90;;;;;;6280340;22;20019;-95
2021/01/30 02:40:19;;;;;;;1999.90;999.90;;;2.00;99.90;;;;;;6280642;22;20012;-94
2021/01/30 02:43:15;;;;;;;1999.90;999.90;;;2.00;99.90;;;;;;6281516;22;20439;-95
2021/01/30 02:45:47;;;;;;;;;;;2.00;99.90;;;;;;6283741;22;20024;-95
2021/01/30 02:48:20;;;;;;;1999.90;999.90;;;2.00;99.90;;;;;;6281576;22;19919;-94
2021/01/30 02:50:51;;;;;;;1999.90;999.90;;;2.00;99.90;;;;;;6281114;22;20012;-95
2021/01/30 02:53:23;;;;;;;1999.90;999.90;;;2.10;99.90;;;;;;6280299;22;20020;-95
2021/01/30 02:55:54;;;;;;;1999.90;999.90;;;2.00;99.90;;;;;;6280554;22;20077;-95
2021/01/30 02:58:28;;;;;;;1999.90;999.90;;;2.00;99.90;;;;;;6280182;22;20016;-96
2021/01/30 03:00:58;;;;;;;1999.90;999.90;;;2.00;99.90;;;;;;6282555;22;20423;-95
2021/01/30 03:03:26;;;;;;;1999.90;999.90;;;2.00;99.90;;;;;;6281458;22;20399;-96
2021/01/30 03:06:00;;;;;;;1999.90;999.90;;;2.00;99.90;;;;;;6281463;22;20016;-95
2021/01/30 03:08:33;;;;;;;1999.90;999.90;;;1.90;99.90;;;;;;6280550;22;20046;-96
2021/01/30 03:11:05;;;;;;;1999.90;999.90;;;1.80;99.90;;;;;;6279598;22;20026;-95
2021/01/30 03:13:38;;;;;;;1999.90;999.90;;;1.90;99.90;;;;;;6280504;22;20020;-95
2021/01/30 03:16:09;;;;;;;1999.90;999.90;;;1.90;99.90;;;;;;6279807;22;20358;-95
2021/01/30 03:18:40;;;;;;;1999.90;999.90;;;1.90;99.90;;;;;;6278502;22;20093;-95
2021/01/30 03:21:11;;;;;;;1999.90;999.90;;;1.90;99.90;;;;;;6278525;22;20447;-95
2021/01/30 03:23:42;;;;;;;1999.90;999.90;;;1.90;99.90;;;;;;6278803;22;20023;-95
2021/01/30 03:26:17;;;;;;;1999.90;999.90;;;1.90;99.90;;;;;;6278866;22;20020;-95
2021/01/30 03:28:47;;;;;;;1999.90;999.90;;;1.90;99.90;;;;;;6279176;22;20020;-96
2021/01/30 03:31:15;;;;;;;1999.90;999.90;;;1.90;99.90;;;;;;6278134;22;20027;-95
2021/01/30 03:33:43;;;;;;;1999.90;999.90;;;1.90;99.90;;;;;;6278880;22;20039;-95
2021/01/30 03:36:10;;;;;;;1999.90;999.90;;;1.90;99.90;;;;;;6278010;22;20020;-95
2021/01/30 03:38:38;;;;;;;1999.90;999.90;;;1.90;99.90;;;;;;6278227;22;20434;-95
2021/01/30 03:41:06;;;;;;;1999.90;999.90;;;1.80;99.90;;;;;;6278514;22;20327;-94
2021/01/30 03:43:34;;;;;;;1999.90;999.90;;;1.80;99.90;;;;;;6280089;22;20059;-95
2021/01/30 03:46:01;;;;;;;1999.90;999.90;;;1.80;99.90;;;;;;6279089;22;20047;-95
2021/01/30 03:48:31;;;;;;;1999.90;999.90;;;1.80;99.90;;;;;;6279639;22;20338;-94
2021/01/30 03:50:59;;;;;;;1999.90;999.90;;;1.70;99.90;;;;;;6278312;22;20462;-95
2021/01/30 03:53:26;;;;;;;1999.90;999.90;;;1.70;99.90;;;;;;6278206;22;20027;-95
2021/01/30 03:55:55;;;;;;;1999.90;999.90;;;1.70;99.90;;;;;;6278923;22;20016;-94
2021/01/30 03:58:22;;;;;;;1999.90;999.90;;;1.80;99.90;;;;;;6277931;22;20019;-95
2021/01/30 04:00:49;;;;;;;1999.90;999.90;;;1.70;99.90;;;;;;6278961;22;20419;-95
2021/01/30 04:03:16;;;;;;;1999.90;999.90;;;1.70;99.90;;;;;;6279041;22;20023;-94
2021/01/30 04:05:44;;;;;;;1999.90;999.90;;;1.70;99.90;;;;;;6279077;22;20039;-95
2021/01/30 04:08:11;;;;;;;1999.90;999.90;;;1.70;99.90;;;;;;6278409;22;20091;-95
2021/01/30 04:10:39;;;;;;;1999.90;999.90;;;1.70;99.90;;;;;;6277998;22;20502;-95
2021/01/30 04:13:09;;;;;;;1999.90;999.90;;;1.70;99.90;;;;;;6278548;22;20020;-95
2021/01/30 04:15:39;;;;;;;1999.90;999.90;;;1.70;99.90;;;;;;6278108;22;20015;-95
2021/01/30 04:18:07;;;;;;;1999.90;999.90;;;1.70;99.90;;;;;;6277847;22;20447;-95
2021/01/30 04:20:34;;;;;;;1999.90;999.90;;;1.60;99.90;;;;;;6278522;22;20016;-95
2021/01/30 04:23:03;;;;;;;1999.90;999.90;;;1.60;99.90;;;;;;6279058;22;20392;-95
2021/01/30 04:25:30;;;;;;;1999.90;999.90;;;1.60;99.90;;;;;;6277722;22;20026;-94
2021/01/30 04:27:57;;;;;;;1999.90;999.90;;;1.60;99.90;;;;;;6278878;22;20054;-95
2021/01/30 04:30:28;;;;;;;1999.90;999.90;;;1.60;99.90;;;;;;6277928;22;20435;-95
2021/01/30 04:32:58;;;;;;;1999.90;999.90;;;1.60;99.90;;;;;;6278222;22;20048;-95
2021/01/30 04:35:29;;;;;;;1999.90;999.90;;;1.50;99.90;;;;;;6278438;22;20023;-95
2021/01/30 04:37:57;;;;;;;1999.90;999.90;;;1.50;99.90;;;;;;6278263;22;20079;-95
2021/01/30 04:40:29;;;;;;;1999.90;999.90;;;1.40;99.90;;;;;;6278267;22;20046;-95
2021/01/30 04:43:06;;;;;;;1999.90;999.90;;;1.40;99.90;;;;;;6278938;22;20019;-95
2021/01/30 04:45:54;;;;;;;1999.90;999.90;;;1.40;99.90;;;;;;6278026;22;20019;-95
2021/01/30 04:48:33;;;;;;;1999.90;999.90;;;1.30;99.90;;;;;;6278994;22;20023;-95
2021/01/30 04:51:06;;;;;;;1999.90;999.90;;;1.40;99.90;;;;;;6278318;22;20373;-96
2021/01/30 04:53:54;;;;;;;1999.90;999.90;;;1.40;99.90;;;;;;6278611;22;20308;-95
2021/01/30 04:56:37;;;;;;;1999.90;999.90;;;1.40;99.90;;;;;;6278329;22;20326;-95
2021/01/30 04:59:12;;;;;;;1999.90;999.90;;;1.40;99.90;;;;;;6277689;22;20023;-94
2021/01/30 05:01:48;;;;;;;1999.90;999.90;;;1.40;99.90;;;;;;6278205;22;20088;-95
2021/01/30 05:04:20;;;;;;;1999.90;999.90;;;1.40;99.90;;;;;;6280020;22;20020;-95
2021/01/30 05:07:00;;;;;;;1999.90;999.90;;;1.40;99.90;;;;;;6279962;22;20024;-94
2021/01/30 05:09:37;;;;;;;1999.90;999.90;;;1.50;99.90;;;;;;6279898;22;20085;-96
2021/01/30 05:12:10;;;;;;;1999.90;999.90;;;1.50;99.90;;;;;;6280317;22;20020;-95
2021/01/30 05:14:43;;;;;;;1999.90;999.90;;;1.50;99.90;;;;;;6280407;22;20464;-95
2021/01/30 05:17:17;;;;;;;1999.90;999.90;;;1.50;99.90;;;;;;6280966;22;20020;-95
2021/01/30 05:19:58;;;;;;;1999.90;999.90;;;1.50;99.90;;;;;;6280545;22;20016;-95
2021/01/30 05:22:35;;;;;;;1999.90;999.90;;;1.50;99.90;;;;;;6279597;22;20026;-95
2021/01/30 05:25:05;;;;;;;1999.90;999.90;;;1.50;99.90;;;;;;6280653;22;20020;-95
2021/01/30 05:27:49;;;;;;;1999.90;999.90;;;1.50;99.90;;;;;;6280011;22;20019;-94
2021/01/30 05:30:22;;;;;;;1999.90;999.90;;;1.60;99.90;;;;;;6280169;22;20094;-95
2021/01/30 05:33:08;;;;;;;1999.90;999.90;;;1.50;99.90;;;;;;6279744;22;20019;-95
2021/01/30 05:35:42;;;;;;;1999.90;999.90;;;1.50;99.90;;;;;;6279203;22;20023;-95
2021/01/30 05:38:22;;;;;;;1999.90;999.90;;;1.50;99.90;;;;;;6280241;22;20020;-95
2021/01/30 05:40:57;;;;;;;1999.90;999.90;;;1.50;99.90;;;;;;6280332;22;20056;-94
2021/01/30 05:43:33;;;;;;;1999.90;999.90;;;1.50;99.90;;;;;;6279601;22;20026;-95
2021/01/30 05:46:01;;;;;;;1999.90;999.90;;;1.40;99.90;;;;;;6280068;22;20027;-95
2021/01/30 05:48:33;;;;;;;1999.90;999.90;;;1.40;99.90;;;;;;6280754;22;20022;-95
2021/01/30 05:51:08;;;;;;;1999.90;999.90;;;1.40;99.90;;;;;;6279734;22;20012;-95
2021/01/30 05:53:35;;;;;;;1999.90;999.90;;;1.40;99.90;;;;;;6280071;22;20050;-95
2021/01/30 05:56:02;;;;;;;1999.90;999.90;;;1.40;99.90;;;;;;6280114;22;20020;-94
2021/01/30 05:58:35;;;;;;;1999.90;999.90;;;1.50;99.90;;;;;;6279520;22;20077;-94
2021/01/30 06:01:21;;;;;;;1999.90;999.90;;;1.50;99.90;;;;;;6280268;22;20081;-95
2021/01/30 06:31:39;;;;;;;1999.90;999.90;;;1.30;99.90;;;;;;6320571;22;20019;-96
2021/01/30 06:34:32;;;;;;;1999.90;999.90;;;1.40;99.90;;;;;;6327273;22;20010;-96
2021/01/30 06:37:11;;;;;;;1999.90;999.90;;;1.40;99.90;;;;;;6329206;22;20038;-96
2021/01/30 06:39:51;;;;;;;1999.90;999.90;;;1.50;99.90;;;;;;6331882;22;20086;-96
2021/01/30 06:42:33;;;;;;;1999.90;999.90;;;1.40;99.90;;;;;;6305159;22;20019;-96
2021/01/30 06:45:10;;;;;;;1999.90;999.90;;;1.50;99.90;;;;;;6329240;22;20038;-96
2021/01/30 06:47:48;;;;;;;1999.90;999.90;;;1.50;99.90;;;;;;6330073;22;20034;-96
2021/01/30 06:50:20;;;;;;;1999.90;999.90;;;1.40;99.90;;;;;;6326851;22;20019;-96
2021/01/30 06:52:54;;;;;;;1999.90;999.90;;;1.50;99.90;;;;;;6327134;22;20026;-96
2021/01/30 06:55:25;;;;;;;1999.90;999.90;;;1.40;99.90;;;;;;6327643;22;20457;-96
2021/01/30 06:58:01;;;;;;;1999.90;999.90;;;1.40;99.90;;;;;;6329699;22;20022;-96
2021/01/30 07:00:35;;;;;;;1999.90;999.90;;;1.40;99.90;;;;;;6331621;22;20020;-96
2021/01/30 07:03:16;;;;;;;1999.90;999.90;;;1.40;99.90;;;;;;6332045;22;20039;-96
2021/01/30 07:06:00;;;;;;;1999.90;999.90;;;1.50;99.90;;;;;;6331667;22;20019;-96
2021/01/30 07:08:56;;;;;;;1999.90;999.90;;;1.50;99.90;;;;;;6330211;22;20019;-96
2021/01/30 07:11:59;;;;;;;1999.90;999.90;;;1.50;99.90;;;;;;6330397;22;20015;-96
2021/01/30 07:14:40;;;;;;;1999.90;999.90;;;1.50;99.90;;;;;;6326926;22;20026;-96
2021/01/30 07:17:17;;;;;;;1999.90;999.90;;;1.50;99.90;;;;;;6329662;22;20068;-96
2021/01/30 07:20:03;;;;;;;1999.90;999.90;;;1.50;99.90;;;;;;6327622;22;20502;-96
2021/01/30 07:22:37;;;;;;;1999.90;999.90;;;1.50;99.90;;;;;;6327719;22;20038;-96
2021/01/30 07:25:10;;;;;;;1999.90;999.90;;;1.50;99.90;;;;;;6327566;22;20019;-96
2021/01/30 07:27:46;;;;;;;1999.90;999.90;;;1.50;99.90;;;;;;6325612;22;20019;-96
2021/01/30 07:30:24;;;;;;;1999.90;999.90;;;1.60;99.90;;;;;;6325929;22;20015;-96
2021/01/30 07:32:59;;;;;;;1999.90;999.90;;;1.60;99.90;;;;;;6327231;22;20026;-96
2021/01/30 07:35:37;;;;;;;1999.90;999.90;;;1.60;99.90;;;;;;6326765;22;20046;-95
2021/01/30 07:38:26;;;;;;;;;;;;;;;;;;;;;
2021/01/30 08:13:43;;;;;;;1999.90;999.90;;;1.50;99.90;;;;;;6276409;22;20153;-95
2021/01/30 08:16:24;;;;;;;1999.90;999.90;;;1.50;99.90;;;;;;6278417;22;20062;-95
2021/01/30 08:18:54;;;;;;;1999.90;999.90;;;1.50;99.90;;;;;;6278897;22;20030;-94
2021/01/30 08:21:31;;;;;;;1999.90;999.90;;;1.50;99.90;;;;;;6277576;22;20012;-94
2021/01/30 08:24:13;;;;;;;1999.90;999.90;;;1.50;99.90;;;;;;6278298;22;20114;-95
2021/01/30 08:26:45;;;;;;;1999.90;999.90;;;1.50;99.90;;;;;;6278636;22;20367;-94
2021/01/30 08:29:19;;;;;;;1999.90;999.90;;;1.60;99.90;;;;;;6278396;22;20069;-93
2021/01/30 08:35:27;;;;;;;1999.90;999.90;;;1.60;99.90;;;;;;6186076;23;20021;-93
2021/01/30 08:39:13;;;;;;;1999.90;999.90;;;1.60;99.90;;;;;;6253360;22;20103;-94
2021/01/30 08:42:15;;;;;;;1999.90;999.90;;;1.60;99.90;;;;;;6281437;22;20020;-95
2021/01/30 08:44:53;;;;;;;1999.90;999.90;;;1.70;99.90;;;;;;6282226;22;20428;-94
2021/01/30 08:47:25;;;;;;;1999.90;999.90;;;1.70;99.90;;;;;;6281859;22;20054;-94
2021/01/30 08:50:11;;;;;;;1999.90;999.90;;;1.70;99.90;;;;;;6283113;22;20035;-95
2021/01/30 08:52:44;;;;;;;1999.90;999.90;;;1.70;99.90;;;;;;6280522;22;20019;-94
2021/01/30 08:56:05;;;;;;;1999.90;999.90;;;1.70;99.90;;;;;;6282171;22;20019;-94
2021/01/30 08:59:05;;;;;;;1999.90;999.90;;;1.70;99.90;;;;;;6285304;22;20020;-94
2021/01/30 09:01:49;;;;;;;1999.90;999.90;;;1.70;99.90;;;;;;6283319;22;20442;-96
2021/01/30 09:04:47;;;;;;;1999.90;999.90;;;1.70;99.90;;;;;;6282472;22;20023;-96
2021/01/30 09:07:43;;;;;;;1999.90;999.90;;;1.80;99.90;;;;;;6282194;22;20041;-95
2021/01/30 09:18:15;;;;;;;1999.90;999.90;;;1.70;99.90;;;;;;6282190;22;20027;-96
2021/01/30 09:20:54;;;;;;;1999.90;999.90;;;1.80;99.90;;;;;;6280150;22;20331;-96
2021/01/30 09:23:32;;;;;;;1999.90;999.90;;;1.80;99.90;;;;;;6279946;22;20094;-96
2021/01/30 09:26:04;;;;;;;1999.90;999.90;;;1.90;99.90;;;;;;6280680;22;20065;-96
2021/01/30 09:28:33;;;;;;;1999.90;999.90;;;1.90;99.90;;;;;;6281297;22;20486;-96
2021/01/30 09:31:11;;;;;;;1999.90;999.90;;;1.90;99.90;;;;;;6280970;22;20423;-96
2021/01/30 09:33:42;;;;;;;1999.90;999.90;;;1.90;99.90;;;;;;6280376;22;20027;-96
2021/01/30 09:36:37;;;;;;;1999.90;999.90;;;1.90;99.90;;;;;;6287541;22;20063;-96
2021/01/30 09:39:22;;;;;;;1999.90;999.90;;;1.90;99.90;;;;;;6296263;22;20026;-96
2021/01/30 09:42:07;;;;;;;1999.90;999.90;;;2.00;99.90;;;;;;6296407;22;20027;-96
2021/01/30 09:44:39;;;;;;;1999.90;999.90;;;2.00;99.90;;;;;;6296709;22;20024;-96
2021/01/30 09:47:15;;;;;;;1999.90;999.90;;;2.00;99.90;;;;;;6287476;22;20043;-94
2021/01/30 09:49:48;;;;;;;1999.90;999.90;;;2.10;99.90;;;;;;6279640;22;20024;-96
2021/01/30 09:52:34;;;;;;;1999.90;999.90;;;2.10;99.90;;;;;;6294929;22;20020;-96
2021/01/30 09:55:32;;;;;;;1999.90;999.90;;;2.10;99.90;;;;;;6295563;22;20034;-96
2021/01/30 09:58:13;;;;;;;1999.90;999.90;;;2.10;99.90;;;;;;6262783;22;20020;-96
2021/01/30 10:00:45;;;;;;;1999.90;999.90;;;2.20;99.90;;;;;;6294999;22;20079;-96
2021/01/30 10:03:53;;;;;;;1999.90;999.90;;;2.20;99.90;;;;;;6299252;22;20019;-96
2021/01/30 10:28:09;;;;;;;1999.90;999.90;;;2.50;99.90;;;;;;6155904;23;20077;-96
2021/01/30 10:34:26;;;;;;;1999.90;999.90;;;2.50;99.90;;;;;;6253921;23;20028;-96
2021/01/30 10:37:02;;;;;;;1999.90;999.90;;;2.50;99.90;;;;;;6262199;23;20020;-95
2021/01/30 10:39:44;;;;;;;1999.90;999.90;;;2.50;99.90;;;;;;6247025;23;20115;-96
2021/01/30 10:42:28;;;;;;;1999.90;999.90;;;2.60;99.90;;;;;;6246593;23;20012;-95
2021/01/30 10:45:01;;;;;;;1999.90;999.90;;;2.60;99.90;;;;;;6246453;23;20413;-95
2021/01/30 10:47:35;;;;;;;1999.90;999.90;;;2.60;99.90;;;;;;6245798;23;20023;-95
2021/01/30 10:50:07;;;;;;;1999.90;999.90;;;2.60;99.90;;;;;;6246800;23;20020;-96
2021/01/30 10:52:52;;;;;;;1999.90;999.90;;;2.60;99.90;;;;;;6248103;23;20024;-94
2021/01/30 10:59:25;;;;;;;1999.90;999.90;;;2.60;99.90;;;;;;6098956;23;20066;-94
2021/01/30 11:01:55;;;;;;;1999.90;999.90;;;2.60;99.90;;;;;;6249506;23;20012;-94
2021/01/30 11:04:27;;;;;;;1999.90;999.90;;;2.60;99.90;;;;;;6248940;23;20039;-94
2021/01/30 11:06:58;;;;;;;1999.90;999.90;;;2.60;99.90;;;;;;6248596;23;20035;-94
2021/01/30 11:09:29;;;;;;;1999.90;999.90;;;2.50;99.90;;;;;;6251133;23;20024;-94
2021/01/30 11:12:10;;;;;;;1999.90;999.90;;;2.60;99.90;;;;;;6250810;23;20088;-96
2021/01/30 11:14:39;;;;;;;1999.90;999.90;;;2.60;99.90;;;;;;6248027;23;20020;-94
2021/01/30 11:28:35;;;;;;;1999.90;999.90;;;2.70;99.90;;;;;;6313295;22;20038;-96
2021/01/30 11:35:05;;;;;;;1999.90;999.90;;;2.80;99.90;;;;;;6233579;22;20023;-96
2021/01/30 11:50:16;;;;;;;1999.90;999.90;;;2.90;99.90;;;;;;6270836;22;19923;-96
2021/01/30 11:53:07;;;;;;;1999.90;999.90;;;2.90;99.90;;;;;;6192087;23;20021;-96
2021/01/30 11:55:36;;;;;;;1999.90;999.90;;;3.00;99.90;;;;;;6272424;22;20026;-96
2021/01/30 12:18:58;;;;;;;1999.90;999.90;;;3.10;99.90;;;;;;6248109;22;20038;-96
2021/01/30 12:36:47;;;;;;;1999.90;999.90;;;3.40;99.90;;;;;;6189748;23;20012;-95
2021/01/30 12:39:14;;;;;;;1999.90;999.90;;;3.40;99.90;;;;;;6241220;22;20073;-93
2021/01/30 12:41:58;;;;;;;1999.90;999.90;;;3.30;99.90;;;;;;6283235;22;20512;-95
2021/01/30 12:44:30;;;;;;;1999.90;999.90;;;3.30;99.90;;;;;;6280801;22;20050;-95
2021/01/30 12:47:27;;;;;;;1999.90;999.90;;;3.40;99.90;;;;;;6284543;22;20319;-95
2021/01/30 12:54:06;;;;;;;1999.90;999.90;;;3.40;99.90;;;;;;6081729;23;20022;-95
2021/01/30 12:56:37;;;;;;;1999.90;999.90;;;3.30;99.90;;;;;;6166428;23;20089;-95
2021/01/30 12:59:15;;;;;;;1999.90;999.90;;;3.30;99.90;;;;;;6281740;22;20007;-94
2021/01/30 14:31:27;;;;;;;1999.90;999.90;;;2.70;99.90;;;;;;6296194;22;20054;-96
2021/01/30 14:34:22;;;;;;;1999.90;999.90;;;2.70;99.90;;;;;;6278953;22;20027;-96
2021/01/30 14:36:50;;;;;;;1999.90;999.90;;;2.70;99.90;;;;;;6286795;22;20046;-96
2021/01/30 14:39:24;;;;;;;1999.90;999.90;;;2.60;99.90;;;;;;6286756;22;20026;-96
2021/01/30 14:41:57;;;;;;;1999.90;999.90;;;2.70;99.90;;;;;;6293187;22;20016;-96
2021/01/30 14:52:49;;;;;;;1999.90;999.90;;;2.60;99.90;;;;;;6084799;23;20033;-96
2021/01/30 16:34:07;;;;;;;1999.90;999.90;;;1.50;99.90;;;;;;6212590;22;20054;-96
2021/01/30 16:37:34;;;;;;;;;;;;;;;;;;;;;
2021/01/30 16:42:56;;;;;;;1999.90;999.90;;;1.50;99.90;;;;;;6280681;22;20082;-96
2021/01/30 16:48:58;;;;;;;1999.90;999.90;;;1.50;99.90;;;;;;6288844;22;20046;-95
2021/01/30 16:58:39;;;;;;;1999.90;999.90;;;1.30;99.90;;;;;;6254514;22;20039;-96
2021/01/30 17:01:40;;;;;;;;;;;;;;;;;;;;;
2021/01/30 17:15:11;;;;;;;1999.90;999.90;;;1.20;99.90;;;;;;6295136;22;20512;-96
2021/01/30 17:39:47;;;;;;;1999.90;999.90;;;1.00;99.90;;;;;;6293262;22;20093;-96
2021/01/30 17:42:20;;;;;;;1999.90;999.90;;;1.00;99.90;;;;;;6287839;22;20023;-96
2021/01/30 17:44:49;;;;;;;1999.90;999.90;;;1.00;99.90;;;;;;6286947;22;20022;-96
2021/01/30 17:47:20;;;;;;;1999.90;999.90;;;1.00;99.90;;;;;;6288733;22;20046;-96
2021/01/30 17:49:48;;;;;;;1999.90;999.90;;;1.00;99.90;;;;;;6286633;22;20039;-96
2021/01/30 17:52:23;;;;;;;1999.90;999.90;;;1.00;99.90;;;;;;6286208;22;20098;-96
2021/01/30 18:05:34;;;;;;;1999.90;999.90;;;0.90;99.90;;;;;;6270703;22;20060;-96
2021/01/30 18:08:05;;;;;;;1999.90;999.90;;;0.80;99.90;;;;;;6285323;22;20086;-96
2021/01/30 18:10:34;;;;;;;1999.90;999.90;;;0.80;99.90;;;;;;6287459;22;20331;-96
2021/01/30 18:13:01;;;;;;;1999.90;999.90;;;0.80;99.90;;;;;;6287016;22;20023;-96
2021/01/30 18:15:37;;;;;;;1999.90;999.90;;;0.80;99.90;;;;;;6288323;22;20019;-96
2021/01/30 19:02:28;;;;;;;1999.90;999.90;;;0.50;99.90;;;;;;6280427;22;20089;-96
2021/01/30 19:29:53;;;;;;;1999.90;999.90;;;0.30;99.90;;;;;;6256154;22;20034;-96
2021/01/30 19:39:57;;;;;;;1999.90;999.90;;;0.20;99.90;;;;;;6162045;23;20012;-96
2021/01/30 19:42:24;;;;;;;1999.90;999.90;;;0.20;99.90;;;;;;6156648;23;20365;-95
2021/01/30 20:20:22;;;;;;;1999.90;999.90;;;-0.20;99.90;;;;;;6291589;22;20096;-96
2021/01/30 20:23:27;;;;;;;1999.90;999.90;;;-0.10;99.90;;;;;;6325952;22;20015;-96
2021/01/30 20:33:19;;;;;;;1999.90;999.90;;;-0.10;99.90;;;;;;6196667;22;20081;-96
2021/01/30 20:47:39;;;;;;;1999.90;999.90;;;-0.10;99.90;;;;;;6356433;22;20030;-96
2021/01/30 20:50:21;;;;;;;1999.90;999.90;;;-0.10;99.90;;;;;;6357287;22;20025;-96
2021/01/30 20:53:30;;;;;;;1999.90;999.90;;;-0.10;99.90;;;;;;6359729;22;20114;-96
2021/01/30 20:56:25;;;;;;;1999.90;999.90;;;-0.10;99.90;;;;;;6357306;22;20019;-96
2021/01/30 20:59:22;;;;;;;1999.90;999.90;;;-0.10;99.90;;;;;;6232091;23;20092;-96
2021/01/30 21:10:26;;;;;;;1999.90;999.90;;;-0.10;99.90;;;;;;6321222;22;20100;-96
2021/01/30 21:12:56;;;;;;;1999.90;999.90;;;-0.10;99.90;;;;;;6342792;22;20356;-96
2021/01/30 21:15:47;;;;;;;1999.90;999.90;;;-0.10;99.90;;;;;;6349782;22;20066;-96
2021/01/30 21:19:34;;;;;;;1999.90;999.90;;;-0.10;99.90;;;;;;6235897;23;20004;-96
2021/01/30 21:40:24;;;;;;;1999.90;999.90;;;-0.10;99.90;;;;;;6268077;23;20026;-96
2021/01/30 21:43:54;;;;;;;;;;;;;;;;;;;;;
2021/01/30 21:50:33;;;;;;;1999.90;999.90;;;-0.20;99.90;;;;;;6205939;23;20017;-96
2021/01/30 21:54:00;;;;;;;1999.90;999.90;;;-0.20;99.90;;;;;;6237555;23;20087;-96
2021/01/30 22:08:38;;;;;;;1999.90;999.90;;;-0.20;99.90;;;;;;6050669;23;20027;-96
2021/01/30 22:19:29;;;;;;;1999.90;999.90;;;-0.30;99.90;;;;;;6007635;23;20054;-96
2021/01/30 22:34:15;;;;;;;1999.90;999.90;;;-0.40;99.90;;;;;;6030990;23;20097;-96
2021/01/30 22:37:03;;;;;;;1999.90;999.90;;;-0.40;99.90;;;;;;6087847;23;20034;-96
2021/01/30 22:40:25;;;;;;;;;;;;;;;;;;;;;
2021/01/30 22:47:48;;;;;;;1999.90;999.90;;;-0.50;99.90;;;;;;6212446;23;20032;-96
2021/01/30 23:28:32;;;;;;;1999.90;999.90;;;-0.60;99.90;;;;;;6350086;22;20029;-96
2021/01/30 23:31:10;;;;;;;1999.90;999.90;;;-0.60;99.90;;;;;;6350989;22;20025;-95
2021/01/30 23:33:40;;;;;;;1999.90;999.90;;;-0.60;99.90;;;;;;6350110;22;20453;-96
2021/01/30 23:36:15;;;;;;;1999.90;999.90;;;-0.70;99.90;;;;;;6318891;22;20450;-96
2021/01/30 23:55:31;;;;;;;1999.90;999.90;;;-0.80;99.90;;;;;;6243765;22;20343;-96
2021/01/30 23:58:03;;;;;;;1999.90;999.90;;;-0.80;99.90;;;;;;6258043;23;20027;-96
